Time;durP1;ratioP1;P1;durP2;ratioP2;P2;SDS_P1;SDS_P2;PMS_P1;PMS_P2;Temp;Humidity;BMP_temperature;BMP_pressure;BME280_temperature;BME280_humidity;BME280_pressure;Samples;Min_cycle;Max_cycle;Signal;HPM_P1;HPM_P2
2023/05/24 00:00:24;;;;;;;;;;;;;;;;;;5092069;28;19927;-79
2023/05/24 00:02:51;;;;;;;;;;;;;;;;;;5104848;28;19923;-77
2023/05/24 00:05:19;;;;;;;;;;;;;;;;;;5098599;28;20600;-80
2023/05/24 00:07:51;;;;;;;;;;;;;;;;;;5101834;28;19927;-77
2023/05/24 00:10:24;;;;;;;;;;;;;;;;;;5101256;27;19924;-81
2023/05/24 00:12:51;;;;;;;;;;;;;;;;;;5101954;28;19931;-79
2023/05/24 00:15:19;;;;;;;;;;;;;;;;;;5105249;27;19920;-78
2023/05/24 00:17:46;;;;;;;;;;;;;;;;;;5097906;28;20365;-80
2023/05/24 00:20:19;;;;;;;;;;;;;;;;;;5103896;28;20416;-79
2023/05/24 00:22:52;;;;;;;;;;;;;;;;;;5105917;28;20292;-79
2023/05/24 00:25:19;;;;;;;;;;;;;;;;;;5101099;28;19924;-78
2023/05/24 00:27:52;;;;;;;;;;;;;;;;;;5102632;28;19956;-78
2023/05/24 00:30:25;;;;;;;;;;;;;;;;;;5092995;28;19924;-79
2023/05/24 00:32:55;;;;;;;;;;;;;;;;;;5084570;28;20480;-77
2023/05/24 00:35:30;;;;;;;;;;;;;;;;;;5094361;28;19920;-79
2023/05/24 00:37:57;;;;;;;;;;;;;;;;;;5093179;28;19919;-79
2023/05/24 00:40:25;;;;;;;;;;;;;;;;;;5092133;28;19928;-78
2023/05/24 00:42:57;;;;;;;;;;;;;;;;;;5091273;28;19920;-77
2023/05/24 00:45:25;;;;;;;;;;;;;;;;;;5105193;28;19923;-79
2023/05/24 00:47:52;;;;;;;;;;;;;;;;;;5084971;28;19927;-79
2023/05/24 00:50:20;;;;;;;;;;;;;;;;;;5090920;28;19924;-78
2023/05/24 00:52:48;;;;;;;;;;;;;;;;;;5101701;28;19920;-77
2023/05/24 00:55:16;;;;;;;;;;;;;;;;;;5101756;28;19920;-79
2023/05/24 00:57:48;;;;;;;;;;;;;;;;;;5090779;28;19919;-79
2023/05/24 01:00:16;;;;;;;;;;;;;;;;;;5084557;28;20343;-77
2023/05/24 01:02:44;;;;;;;;;;;;;;;;;;5102229;28;20376;-78
2023/05/24 01:05:12;;;;;;;;;;;;;;;;;;5082445;28;19924;-81
2023/05/24 01:07:39;;;;;;;;;;;;;;;;;;5083351;28;20375;-80
2023/05/24 01:10:07;;;;;;;;;;;;;;;;;;5090641;28;19923;-80
2023/05/24 01:12:40;;;;;;;;;;;;;;;;;;5098801;28;19928;-80
2023/05/24 01:15:09;;;;;;;;;;;;;;;;;;5088333;28;20359;-80
2023/05/24 01:17:37;;;;;;;;;;;;;;;;;;5089865;28;19924;-79
2023/05/24 01:20:05;;;;;;;;;;;;;;;;;;5089586;28;19924;-79
2023/05/24 01:22:39;;;;;;;;;;;;;;;;;;5099132;28;19924;-78
2023/05/24 01:25:06;;;;;;;;;;;;;;;;;;5084004;28;19939;-79
2023/05/24 01:27:36;;;;;;;;;;;;;;;;;;5102985;28;20640;-79
2023/05/24 01:30:03;;;;;;;;;;;;;;;;;;5082014;28;19924;-79
2023/05/24 01:32:31;;;;;;;;;;;;;;;;;;5091092;28;19924;-79
2023/05/24 01:34:58;;;;;;;;;;;;;;;;;;5088738;28;19926;-78
2023/05/24 01:37:26;;;;;;;;;;;;;;;;;;5092628;28;19920;-78
2023/05/24 01:39:59;;;;;;;;;;;;;;;;;;5101549;28;20387;-78
2023/05/24 01:42:27;;;;;;;;;;;;;;;;;;5097155;28;19924;-79
2023/05/24 01:44:54;;;;;;;;;;;;;;;;;;5078972;28;19927;-79
2023/05/24 01:47:22;;;;;;;;;;;;;;;;;;5091675;28;19935;-79
2023/05/24 01:49:56;;;;;;;;;;;;;;;;;;5087806;28;19938;-77
2023/05/24 01:52:24;;;;;;;;;;;;;;;;;;5083259;28;19920;-78
2023/05/24 01:54:56;;;;;;;;;;;;;;;;;;5084541;28;19919;-80
2023/05/24 01:57:24;;;;;;;;;;;;;;;;;;5098950;28;19935;-81
2023/05/24 01:59:56;;;;;;;;;;;;;;;;;;5083671;28;19924;-80
2023/05/24 02:02:24;;;;;;;;;;;;;;;;;;5084670;28;19927;-79
2023/05/24 02:04:52;;;;;;;;;;;;;;;;;;5078894;28;19927;-80
2023/05/24 02:07:19;;;;;;;;;;;;;;;;;;5077595;28;19939;-82
2023/05/24 02:09:47;;;;;;;;;;;;;;;;;;5084635;28;19935;-78
2023/05/24 02:12:14;;;;;;;;;;;;;;;;;;5080253;28;19954;-79
2023/05/24 02:14:42;;;;;;;;;;;;;;;;;;5095654;28;19942;-81
2023/05/24 02:17:09;;;;;;;;;;;;;;;;;;5083799;28;20391;-79
2023/05/24 02:19:37;;;;;;;;;;;;;;;;;;5076808;28;19927;-79
2023/05/24 02:22:06;;;;;;;;;;;;;;;;;;5092966;28;19924;-80
2023/05/24 02:24:33;;;;;;;;;;;;;;;;;;5092563;28;20395;-79
2023/05/24 02:27:01;;;;;;;;;;;;;;;;;;5081624;28;19928;-79
2023/05/24 02:29:29;;;;;;;;;;;;;;;;;;5083101;28;19938;-79
2023/05/24 02:31:56;;;;;;;;;;;;;;;;;;5077521;28;20645;-78
2023/05/24 02:34:24;;;;;;;;;;;;;;;;;;5079688;28;19924;-78
2023/05/24 02:36:53;;;;;;;;;;;;;;;;;;5092060;28;19920;-78
2023/05/24 02:39:25;;;;;;;;;;;;;;;;;;5093433;28;19928;-79
2023/05/24 02:41:53;;;;;;;;;;;;;;;;;;5075222;28;20335;-80
2023/05/24 02:44:21;;;;;;;;;;;;;;;;;;5092173;28;19931;-77
2023/05/24 02:46:53;;;;;;;;;;;;;;;;;;5084458;28;19935;-80
2023/05/24 02:49:26;;;;;;;;;;;;;;;;;;5083330;28;19935;-80
2023/05/24 02:51:53;;;;;;;;;;;;;;;;;;5081205;28;19931;-79
2023/05/24 02:54:21;;;;;;;;;;;;;;;;;;5094903;28;19924;-80
2023/05/24 02:56:50;;;;;;;;;;;;;;;;;;5096706;28;20395;-78
2023/05/24 02:59:18;;;;;;;;;;;;;;;;;;5089466;28;20544;-79
2023/05/24 03:01:46;;;;;;;;;;;;;;;;;;5087760;28;19920;-77
2023/05/24 03:04:14;;;;;;;;;;;;;;;;;;5096669;28;19935;-79
2023/05/24 03:06:47;;;;;;;;;;;;;;;;;;5078745;28;19935;-79
2023/05/24 03:09:19;;;;;;;;;;;;;;;;;;5086156;28;19927;-79
2023/05/24 03:11:47;;;;;;;;;;;;;;;;;;5096545;28;19932;-80
2023/05/24 03:14:16;;;;;;;;;;;;;;;;;;5085938;28;19935;-80
2023/05/24 03:16:48;;;;;;;;;;;;;;;;;;5095468;28;19927;-78
2023/05/24 03:19:21;;;;;;;;;;;;;;;;;;5086780;28;19924;-79
2023/05/24 03:21:48;;;;;;;;;;;;;;;;;;5087784;28;19923;-80
2023/05/24 03:24:21;;;;;;;;;;;;;;;;;;5079021;28;19938;-81
2023/05/24 03:26:49;;;;;;;;;;;;;;;;;;5087078;28;19958;-79
2023/05/24 03:29:17;;;;;;;;;;;;;;;;;;5080506;28;20586;-78
2023/05/24 03:31:45;;;;;;;;;;;;;;;;;;5079937;28;19920;-80
2023/05/24 03:34:17;;;;;;;;;;;;;;;;;;5085067;28;20284;-79
2023/05/24 03:36:50;;;;;;;;;;;;;;;;;;5085288;28;20491;-79
2023/05/24 03:39:17;;;;;;;;;;;;;;;;;;5085370;28;19924;-79
2023/05/24 03:41:56;;;;;;;;;;;;;;;;;;5086842;28;19942;-79
2023/05/24 03:44:29;;;;;;;;;;;;;;;;;;5086356;28;20297;-77
2023/05/24 03:46:56;;;;;;;;;;;;;;;;;;5095180;28;20384;-80
2023/05/24 03:49:24;;;;;;;;;;;;;;;;;;5098358;28;19920;-79
2023/05/24 03:51:52;;;;;;;;;;;;;;;;;;5080186;28;19938;-81
2023/05/24 03:54:19;;;;;;;;;;;;;;;;;;5083770;28;19919;-77
2023/05/24 03:56:47;;;;;;;;;;;;;;;;;;5086393;28;19923;-80
2023/05/24 03:59:15;;;;;;;;;;;;;;;;;;5096681;28;20368;-80
2023/05/24 04:01:47;;;;;;;;;;;;;;;;;;5080615;28;19938;-78
2023/05/24 04:04:15;;;;;;;;;;;;;;;;;;5096467;28;19920;-80
2023/05/24 04:06:42;;;;;;;;;;;;;;;;;;5077731;28;19920;-80
2023/05/24 04:09:15;;;;;;;;;;;;;;;;;;5094719;28;19929;-79
2023/05/24 04:11:48;;;;;;;;;;;;;;;;;;5096004;27;20961;-80
2023/05/24 04:14:15;;;;;;;;;;;;;;;;;;5085025;28;19920;-79
2023/05/24 04:16:43;;;;;;;;;;;;;;;;;;5079474;28;20316;-79
2023/05/24 04:19:18;;;;;;;;;;;;;;;;;;5096694;28;19943;-79
2023/05/24 04:21:51;;;;;;;;;;;;;;;;;;5085341;28;20445;-78
2023/05/24 04:24:23;;;;;;;;;;;;;;;;;;5088443;28;19924;-79
2023/05/24 04:26:51;;;;;;;;;;;;;;;;;;5085747;28;19928;-77
2023/05/24 04:29:25;;;;;;;;;;;;;;;;;;5089715;28;19934;-79
2023/05/24 04:31:52;;;;;;;;;;;;;;;;;;5093857;28;19927;-77
2023/05/24 04:34:22;;;;;;;;;;;;;;;;;;5084842;28;19943;-78
2023/05/24 04:36:55;;;;;;;;;;;;;;;;;;5085364;28;19981;-79
2023/05/24 04:39:29;;;;;;;;;;;;;;;;;;5095398;28;19935;-80
2023/05/24 04:41:56;;;;;;;;;;;;;;;;;;5093801;28;19924;-80
2023/05/24 04:44:24;;;;;;;;;;;;;;;;;;5096713;28;19919;-79
2023/05/24 04:46:52;;;;;;;;;;;;;;;;;;5101750;27;19931;-79
2023/05/24 04:49:19;;;;;;;;;;;;;;;;;;5089956;28;19920;-79
2023/05/24 04:51:47;;;;;;;;;;;;;;;;;;5098980;28;19923;-79
2023/05/24 04:54:16;;;;;;;;;;;;;;;;;;5101007;28;19928;-79
2023/05/24 04:56:44;;;;;;;;;;;;;;;;;;5091797;28;19927;-79
2023/05/24 04:59:12;;;;;;;;;;;;;;;;;;5098974;28;19931;-78
2023/05/24 05:01:40;;;;;;;;;;;;;;;;;;5097932;28;20380;-78
2023/05/24 05:04:07;;;;;;;;;;;;;;;;;;5099958;28;19931;-77
2023/05/24 05:06:37;;;;;;;;;;;;;;;;;;5090509;28;19978;-78
2023/05/24 05:09:08;;;;;;;;;;;;;;;;;;5099797;27;20591;-78
2023/05/24 05:11:35;;;;;;;;;;;;;;;;;;5097368;28;19924;-79
2023/05/24 05:14:03;;;;;;;;;;;;;;;;;;5082768;27;20245;-78
2023/05/24 05:16:30;;;;;;;;;;;;;;;;;;5099601;28;19924;-79
2023/05/24 05:19:04;;;;;;;;;;;;;;;;;;5098361;28;19926;-79
2023/05/24 05:21:32;;;;;;;;;;;;;;;;;;5098716;28;19923;-78
2023/05/24 05:24:05;;;;;;;;;;;;;;;;;;5101469;28;19919;-78
2023/05/24 05:26:34;;;;;;;;;;;;;;;;;;5082235;28;19930;-79
2023/05/24 05:29:01;;;;;;;;;;;;;;;;;;5100959;28;19938;-78
2023/05/24 05:31:29;;;;;;;;;;;;;;;;;;5104122;28;19935;-79
2023/05/24 05:33:56;;;;;;;;;;;;;;;;;;5082460;28;19939;-78
2023/05/24 05:36:29;;;;;;;;;;;;;;;;;;5101701;28;19927;-79
2023/05/24 05:39:02;;;;;;;;;;;;;;;;;;5104367;27;19930;-81
2023/05/24 05:41:29;;;;;;;;;;;;;;;;;;5088103;28;20844;-79
2023/05/24 05:44:02;;;;;;;;;;;;;;;;;;5102546;28;19931;-79
2023/05/24 05:46:29;;;;;;;;;;;;;;;;;;5082966;28;19943;-79
2023/05/24 05:49:02;;;;;;;;;;;;;;;;;;5100684;28;19924;-79
2023/05/24 05:51:35;;;;;;;;;;;;;;;;;;5100150;28;19938;-77
2023/05/24 05:54:02;;;;;;;;;;;;;;;;;;5099495;28;19931;-79
2023/05/24 05:56:40;;;;;;;;;;;;;;;;;;5083511;28;19936;-80
2023/05/24 05:59:12;;;;;;;;;;;;;;;;;;5098437;28;19924;-80
2023/05/24 06:01:46;;;;;;;;;;;;;;;;;;5084548;28;20315;-78
2023/05/24 06:04:18;;;;;;;;;;;;;;;;;;5083302;28;19924;-79
2023/05/24 06:06:48;;;;;;;;;;;;;;;;;;5092878;28;20028;-79
2023/05/24 06:09:15;;;;;;;;;;;;;;;;;;5084623;28;21966;-80
2023/05/24 06:11:43;;;;;;;;;;;;;;;;;;5081651;28;19927;-79
2023/05/24 06:14:12;;;;;;;;;;;;;;;;;;5074815;28;19926;-79
2023/05/24 06:16:42;;;;;;;;;;;;;;;;;;5095289;27;19924;-77
2023/05/24 06:19:09;;;;;;;;;;;;;;;;;;5092547;28;19924;-78
2023/05/24 06:21:37;;;;;;;;;;;;;;;;;;5098238;28;19924;-80
2023/05/24 06:24:04;;;;;;;;;;;;;;;;;;5083839;28;19927;-80
2023/05/24 06:26:32;;;;;;;;;;;;;;;;;;5090425;28;19931;-79
2023/05/24 06:28:59;;;;;;;;;;;;;;;;;;5095093;28;19927;-80
2023/05/24 06:31:27;;;;;;;;;;;;;;;;;;5081552;28;20025;-79
2023/05/24 06:33:59;;;;;;;;;;;;;;;;;;5096179;28;19934;-79
2023/05/24 06:36:27;;;;;;;;;;;;;;;;;;5093980;28;19939;-80
2023/05/24 06:38:54;;;;;;;;;;;;;;;;;;5086638;28;19935;-80
2023/05/24 06:41:27;;;;;;;;;;;;;;;;;;5092390;28;19931;-79
2023/05/24 06:43:55;;;;;;;;;;;;;;;;;;5085180;28;19927;-80
2023/05/24 06:46:22;;;;;;;;;;;;;;;;;;5082496;28;19919;-79
2023/05/24 06:48:50;;;;;;;;;;;;;;;;;;5083235;28;19928;-80
2023/05/24 06:51:17;;;;;;;;;;;;;;;;;;5096830;28;19935;-80
2023/05/24 06:53:45;;;;;;;;;;;;;;;;;;5098585;28;19920;-81
2023/05/24 06:56:13;;;;;;;;;;;;;;;;;;5096829;28;19923;-79
2023/05/24 06:58:41;;;;;;;;;;;;;;;;;;5095778;28;19920;-79
2023/05/24 07:01:09;;;;;;;;;;;;;;;;;;5093276;28;19920;-79
2023/05/24 07:03:41;;;;;;;;;;;;;;;;;;5083434;28;19924;-80
2023/05/24 07:06:12;;;;;;;;;;;;;;;;;;5091830;28;20431;-79
2023/05/24 07:08:40;;;;;;;;;;;;;;;;;;5093817;28;19924;-80
2023/05/24 07:11:13;;;;;;;;;;;;;;;;;;5086165;28;20407;-79
2023/05/24 07:13:46;;;;;;;;;;;;;;;;;;5096273;28;20320;-79
2023/05/24 07:16:13;;;;;;;;;;;;;;;;;;5075033;28;19935;-80
2023/05/24 07:18:41;;;;;;;;;;;;;;;;;;5072193;28;19928;-79
2023/05/24 07:21:09;;;;;;;;;;;;;;;;;;5065207;28;19928;-81
2023/05/24 07:23:36;;;;;;;;;;;;;;;;;;5071852;28;20399;-79
2023/05/24 07:26:04;;;;;;;;;;;;;;;;;;5083217;28;19934;-81
2023/05/24 07:28:31;;;;;;;;;;;;;;;;;;5061117;28;19927;-80
2023/05/24 07:30:59;;;;;;;;;;;;;;;;;;5078920;28;19930;-80
2023/05/24 07:33:32;;;;;;;;;;;;;;;;;;5059620;28;19931;-79
2023/05/24 07:36:01;;;;;;;;;;;;;;;;;;5076682;28;20581;-80
2023/05/24 07:38:29;;;;;;;;;;;;;;;;;;5067024;28;19934;-81
2023/05/24 07:40:57;;;;;;;;;;;;;;;;;;5085423;28;20202;-79
2023/05/24 07:43:25;;;;;;;;;;;;;;;;;;5085380;28;21127;-79
2023/05/24 07:45:58;;;;;;;;;;;;;;;;;;5087756;28;19927;-80
2023/05/24 07:48:26;;;;;;;;;;;;;;;;;;5076105;28;19924;-80
2023/05/24 07:50:58;;;;;;;;;;;;;;;;;;5074599;28;20489;-81
2023/05/24 07:53:31;;;;;;;;;;;;;;;;;;5082461;28;19938;-80
2023/05/24 07:55:58;;;;;;;;;;;;;;;;;;5074604;28;20024;-82
2023/05/24 07:58:26;;;;;;;;;;;;;;;;;;5079343;28;19935;-81
2023/05/24 08:00:53;;;;;;;;;;;;;;;;;;5083668;28;20449;-81
2023/05/24 08:03:23;;;;;;;;;;;;;;;;;;5076889;28;19927;-82
2023/05/24 08:05:51;;;;;;;;;;;;;;;;;;5066829;28;19927;-81
2023/05/24 08:08:19;;;;;;;;;;;;;;;;;;5074959;28;20348;-80
2023/05/24 08:10:51;;;;;;;;;;;;;;;;;;5084402;28;20761;-83
2023/05/24 08:13:19;;;;;;;;;;;;;;;;;;5075963;28;19934;-84
2023/05/24 08:15:47;;;;;;;;;;;;;;;;;;5077128;28;19927;-83
2023/05/24 08:18:15;;;;;;;;;;;;;;;;;;5076992;28;20380;-83
2023/05/24 08:20:42;;;;;;;;;;;;;;;;;;5092683;28;21105;-81
2023/05/24 08:23:10;;;;;;;;;;;;;;;;;;5087414;28;19935;-81
2023/05/24 08:25:38;;;;;;;;;;;;;;;;;;5092654;28;20543;-82
2023/05/24 08:28:07;;;;;;;;;;;;;;;;;;5085327;28;19920;-80
2023/05/24 08:30:34;;;;;;;;;;;;;;;;;;5087743;28;19930;-81
2023/05/24 08:33:02;;;;;;;;;;;;;;;;;;5085251;28;19935;-83
2023/05/24 08:35:30;;;;;;;;;;;;;;;;;;5089819;28;19927;-85
2023/05/24 08:38:02;;;;;;;;;;;;;;;;;;5090805;27;20488;-83
2023/05/24 08:40:30;;;;;;;;;;;;;;;;;;5088667;27;19938;-84
2023/05/24 08:42:57;;;;;;;;;;;;;;;;;;5090077;28;19927;-85
2023/05/24 08:45:25;;;;;;;;;;;;;;;;;;5072692;28;20288;-84
2023/05/24 08:47:52;;;;;;;;;;;;;;;;;;5083096;28;19927;-84
2023/05/24 08:50:20;;;;;;;;;;;;;;;;;;5082115;28;20489;-84
2023/05/24 08:52:52;;;;;;;;;;;;;;;;;;5083880;27;19928;-84
2023/05/24 08:55:20;;;;;;;;;;;;;;;;;;5071764;28;19928;-81
2023/05/24 08:57:47;;;;;;;;;;;;;;;;;;5070795;28;19927;-81
2023/05/24 09:00:20;;;;;;;;;;;;;;;;;;5079944;28;19927;-81
2023/05/24 09:02:48;;;;;;;;;;;;;;;;;;5071936;28;19945;-81
2023/05/24 09:05:21;;;;;;;;;;;;;;;;;;5075947;27;19927;-79
2023/05/24 09:07:54;;;;;;;;;;;;;;;;;;5080502;28;19950;-81
2023/05/24 09:10:21;;;;;;;;;;;;;;;;;;5068416;28;19935;-81
2023/05/24 09:12:54;;;;;;;;;;;;;;;;;;5068303;28;19935;-81
2023/05/24 09:15:26;;;;;;;;;;;;;;;;;;5077390;27;20564;-80
2023/05/24 09:17:54;;;;;;;;;;;;;;;;;;5083608;28;19928;-81
2023/05/24 09:20:22;;;;;;;;;;;;;;;;;;5065102;28;19928;-80
2023/05/24 09:22:49;;;;;;;;;;;;;;;;;;5072684;28;19935;-82
2023/05/24 09:25:17;;;;;;;;;;;;;;;;;;5061922;28;19986;-81
2023/05/24 09:27:45;;;;;;;;;;;;;;;;;;5063167;28;20407;-81
2023/05/24 09:30:18;;;;;;;;;;;;;;;;;;5059232;28;19924;-82
2023/05/24 09:32:50;;;;;;;;;;;;;;;;;;5087869;27;21137;-82
2023/05/24 09:35:18;;;;;;;;;;;;;;;;;;5082517;28;19927;-81
2023/05/24 09:37:45;;;;;;;;;;;;;;;;;;5087850;28;19928;-79
2023/05/24 09:40:13;;;;;;;;;;;;;;;;;;5080573;28;19935;-82
2023/05/24 09:42:45;;;;;;;;;;;;;;;;;;5084283;28;19928;-81
2023/05/24 09:45:13;;;;;;;;;;;;;;;;;;5075835;28;20017;-82
2023/05/24 09:47:40;;;;;;;;;;;;;;;;;;5075267;28;19935;-81
2023/05/24 09:50:13;;;;;;;;;;;;;;;;;;5080978;28;19928;-82
2023/05/24 09:52:44;;;;;;;;;;;;;;;;;;5076649;28;19935;-80
2023/05/24 09:55:11;;;;;;;;;;;;;;;;;;5080180;28;21258;-82
2023/05/24 09:57:44;;;;;;;;;;;;;;;;;;5087574;27;19927;-82
2023/05/24 10:00:15;;;;;;;;;;;;;;;;;;5071847;28;19938;-80
2023/05/24 10:02:43;;;;;;;;;;;;;;;;;;5072825;28;19935;-80
2023/05/24 10:05:11;;;;;;;;;;;;;;;;;;5083873;28;19927;-82
2023/05/24 10:07:38;;;;;;;;;;;;;;;;;;5089756;27;20457;-79
2023/05/24 10:10:06;;;;;;;;;;;;;;;;;;5079469;28;19919;-80
2023/05/24 10:12:34;;;;;;;;;;;;;;;;;;5065164;28;19927;-81
2023/05/24 10:15:02;;;;;;;;;;;;;;;;;;5069833;28;19998;-81
2023/05/24 10:17:30;;;;;;;;;;;;;;;;;;5061870;28;20371;-81
2023/05/24 10:20:05;;;;;;;;;;;;;;;;;;5064657;28;19927;-80
2023/05/24 10:22:33;;;;;;;;;;;;;;;;;;5079290;28;19935;-81
2023/05/24 10:25:07;;;;;;;;;;;;;;;;;;5074840;28;19930;-80
2023/05/24 10:27:35;;;;;;;;;;;;;;;;;;5079358;28;19934;-81
2023/05/24 10:30:04;;;;;;;;;;;;;;;;;;5057971;28;20379;-80
2023/05/24 10:32:32;;;;;;;;;;;;;;;;;;5064638;28;19928;-81
2023/05/24 10:34:59;;;;;;;;;;;;;;;;;;5072278;28;20300;-81
2023/05/24 10:37:27;;;;;;;;;;;;;;;;;;5080167;28;19930;-80
2023/05/24 10:39:54;;;;;;;;;;;;;;;;;;5068516;28;19982;-80
2023/05/24 10:42:22;;;;;;;;;;;;;;;;;;5078268;28;19939;-80
2023/05/24 10:44:50;;;;;;;;;;;;;;;;;;5067029;28;19919;-79
2023/05/24 10:47:18;;;;;;;;;;;;;;;;;;5066441;28;19928;-80
2023/05/24 10:49:45;;;;;;;;;;;;;;;;;;5075359;28;19923;-81
2023/05/24 10:52:13;;;;;;;;;;;;;;;;;;5063464;28;21138;-80
2023/05/24 10:54:40;;;;;;;;;;;;;;;;;;5083254;28;19928;-81
2023/05/24 10:57:08;;;;;;;;;;;;;;;;;;5063559;28;20906;-80
2023/05/24 10:59:37;;;;;;;;;;;;;;;;;;5076877;28;19928;-79
2023/05/24 11:02:08;;;;;;;;;;;;;;;;;;5073023;28;19935;-80
2023/05/24 11:04:35;;;;;;;;;;;;;;;;;;5057643;28;19927;-80
2023/05/24 11:07:09;;;;;;;;;;;;;;;;;;5083641;28;19934;-80
2023/05/24 11:09:45;;;;;;;;;;;;;;;;;;5076283;28;19935;-79
2023/05/24 11:12:12;;;;;;;;;;;;;;;;;;5076867;28;19924;-80
2023/05/24 11:14:40;;;;;;;;;;;;;;;;;;5066965;28;19928;-82
2023/05/24 11:17:07;;;;;;;;;;;;;;;;;;5082169;28;19934;-80
2023/05/24 11:19:35;;;;;;;;;;;;;;;;;;5083659;28;19927;-80
2023/05/24 11:22:08;;;;;;;;;;;;;;;;;;5067745;28;20526;-79
2023/05/24 11:24:35;;;;;;;;;;;;;;;;;;5068488;28;19927;-81
2023/05/24 11:27:08;;;;;;;;;;;;;;;;;;5067409;28;19928;-81
2023/05/24 11:29:36;;;;;;;;;;;;;;;;;;5082746;28;21063;-80
2023/05/24 11:32:08;;;;;;;;;;;;;;;;;;5066233;28;19927;-80
2023/05/24 11:34:36;;;;;;;;;;;;;;;;;;5079839;27;19928;-80
2023/05/24 11:37:04;;;;;;;;;;;;;;;;;;5081936;27;19928;-80
2023/05/24 11:39:32;;;;;;;;;;;;;;;;;;5069042;27;19928;-79
2023/05/24 11:42:00;;;;;;;;;;;;;;;;;;5089143;27;19928;-77
2023/05/24 11:44:32;;;;;;;;;;;;;;;;;;5068349;28;19934;-78
2023/05/24 11:47:00;;;;;;;;;;;;;;;;;;5084285;27;20688;-80
2023/05/24 11:49:32;;;;;;;;;;;;;;;;;;5072400;28;19934;-79
2023/05/24 11:52:00;;;;;;;;;;;;;;;;;;5059244;28;19935;-80
2023/05/24 11:54:28;;;;;;;;;;;;;;;;;;5061426;28;19928;-79
2023/05/24 11:56:56;;;;;;;;;;;;;;;;;;5061019;28;21037;-80
2023/05/24 11:59:23;;;;;;;;;;;;;;;;;;5065075;28;20620;-80
2023/05/24 12:01:51;;;;;;;;;;;;;;;;;;5065594;28;19924;-80
2023/05/24 12:04:19;;;;;;;;;;;;;;;;;;5062858;28;19962;-79
2023/05/24 12:06:47;;;;;;;;;;;;;;;;;;5067020;28;19927;-80
2023/05/24 12:09:15;;;;;;;;;;;;;;;;;;5078173;28;20714;-80
2023/05/24 12:11:43;;;;;;;;;;;;;;;;;;5065294;28;20547;-78
2023/05/24 12:14:10;;;;;;;;;;;;;;;;;;5078614;28;19928;-78
2023/05/24 12:16:44;;;;;;;;;;;;;;;;;;5081077;28;20010;-80
2023/05/24 12:19:17;;;;;;;;;;;;;;;;;;5074743;28;19962;-82
2023/05/24 12:21:44;;;;;;;;;;;;;;;;;;5080014;28;19927;-79
2023/05/24 12:24:18;;;;;;;;;;;;;;;;;;5061392;28;19934;-80
2023/05/24 12:26:45;;;;;;;;;;;;;;;;;;5064384;28;19935;-79
2023/05/24 12:29:13;;;;;;;;;;;;;;;;;;5059999;28;19927;-80
2023/05/24 12:31:41;;;;;;;;;;;;;;;;;;5075013;28;19927;-79
2023/05/24 12:34:09;;;;;;;;;;;;;;;;;;5085472;28;19950;-81
2023/05/24 12:36:37;;;;;;;;;;;;;;;;;;5069242;28;19938;-80
2023/05/24 12:39:04;;;;;;;;;;;;;;;;;;5071031;28;19927;-79
2023/05/24 12:41:32;;;;;;;;;;;;;;;;;;5059138;28;19928;-79
2023/05/24 12:43:59;;;;;;;;;;;;;;;;;;5062792;28;19936;-82
2023/05/24 12:46:27;;;;;;;;;;;;;;;;;;5064450;27;19927;-81
2023/05/24 12:48:56;;;;;;;;;;;;;;;;;;5069164;28;20616;-78
2023/05/24 12:51:23;;;;;;;;;;;;;;;;;;5069678;28;19934;-80
2023/05/24 12:53:51;;;;;;;;;;;;;;;;;;5082733;27;19928;-80
2023/05/24 12:56:19;;;;;;;;;;;;;;;;;;5082406;28;19927;-81
2023/05/24 12:58:46;;;;;;;;;;;;;;;;;;5090693;27;19934;-78
2023/05/24 13:01:14;;;;;;;;;;;;;;;;;;5075582;28;19935;-80
2023/05/24 13:03:41;;;;;;;;;;;;;;;;;;5063856;28;20226;-80
2023/05/24 13:06:09;;;;;;;;;;;;;;;;;;5069355;28;19928;-79
2023/05/24 13:08:38;;;;;;;;;;;;;;;;;;5074932;28;19928;-83
2023/05/24 13:11:05;;;;;;;;;;;;;;;;;;5084583;28;21138;-81
2023/05/24 13:13:34;;;;;;;;;;;;;;;;;;5069991;28;19935;-80
2023/05/24 13:16:04;;;;;;;;;;;;;;;;;;5071828;28;19926;-80
2023/05/24 13:18:31;;;;;;;;;;;;;;;;;;5082978;28;19939;-79
2023/05/24 13:20:59;;;;;;;;;;;;;;;;;;5077717;28;19935;-80
2023/05/24 13:23:27;;;;;;;;;;;;;;;;;;5069162;28;20603;-82
2023/05/24 13:25:55;;;;;;;;;;;;;;;;;;5065856;28;20130;-79
2023/05/24 13:28:25;;;;;;;;;;;;;;;;;;5083416;28;20292;-84
2023/05/24 13:30:53;;;;;;;;;;;;;;;;;;5083346;28;19928;-80
2023/05/24 13:33:21;;;;;;;;;;;;;;;;;;5076442;28;20095;-79
2023/05/24 13:35:54;;;;;;;;;;;;;;;;;;5088110;27;19939;-78
2023/05/24 13:38:24;;;;;;;;;;;;;;;;;;5079599;28;19928;-80
2023/05/24 13:40:52;;;;;;;;;;;;;;;;;;5063015;28;20291;-79
2023/05/24 13:43:20;;;;;;;;;;;;;;;;;;5069973;28;19927;-82
2023/05/24 13:45:48;;;;;;;;;;;;;;;;;;5073780;28;19928;-79
2023/05/24 13:48:15;;;;;;;;;;;;;;;;;;5059204;28;20380;-80
2023/05/24 13:50:48;;;;;;;;;;;;;;;;;;5066539;28;19935;-81
2023/05/24 13:53:15;;;;;;;;;;;;;;;;;;5060399;28;19927;-79
2023/05/24 13:55:44;;;;;;;;;;;;;;;;;;5065924;28;19931;-79
2023/05/24 13:58:12;;;;;;;;;;;;;;;;;;5069877;28;19927;-80
2023/05/24 14:00:44;;;;;;;;;;;;;;;;;;5072917;28;19928;-80
2023/05/24 14:03:14;;;;;;;;;;;;;;;;;;5065127;28;19920;-81
2023/05/24 14:05:42;;;;;;;;;;;;;;;;;;5068953;28;19950;-76
2023/05/24 14:08:09;;;;;;;;;;;;;;;;;;5068352;28;19939;-79
2023/05/24 14:10:37;;;;;;;;;;;;;;;;;;5064847;28;19939;-81
2023/05/24 14:13:10;;;;;;;;;;;;;;;;;;5078192;28;19932;-80
2023/05/24 14:15:37;;;;;;;;;;;;;;;;;;5066016;28;19928;-78
2023/05/24 14:18:06;;;;;;;;;;;;;;;;;;5082399;27;19933;-77
2023/05/24 14:20:39;;;;;;;;;;;;;;;;;;5079077;28;20586;-80
2023/05/24 14:23:07;;;;;;;;;;;;;;;;;;5083762;28;19928;-82
2023/05/24 14:25:40;;;;;;;;;;;;;;;;;;5066466;28;19927;-80
2023/05/24 14:28:08;;;;;;;;;;;;;;;;;;5077144;28;19928;-83
2023/05/24 14:30:37;;;;;;;;;;;;;;;;;;5081688;28;19928;-78
2023/05/24 14:33:10;;;;;;;;;;;;;;;;;;5058911;28;19935;-79
2023/05/24 14:35:38;;;;;;;;;;;;;;;;;;5075665;28;19950;-80
2023/05/24 14:38:10;;;;;;;;;;;;;;;;;;5082374;28;20316;-78
2023/05/24 14:40:46;;;;;;;;;;;;;;;;;;5063095;28;19928;-79
2023/05/24 14:43:18;;;;;;;;;;;;;;;;;;5065817;28;20273;-80
2023/05/24 14:45:46;;;;;;;;;;;;;;;;;;5062633;28;19928;-78
2023/05/24 14:48:14;;;;;;;;;;;;;;;;;;5069067;28;20679;-78
2023/05/24 14:50:47;;;;;;;;;;;;;;;;;;5066945;28;19943;-76
2023/05/24 14:53:14;;;;;;;;;;;;;;;;;;5062843;28;19927;-80
2023/05/24 14:55:42;;;;;;;;;;;;;;;;;;5057721;28;19938;-79
2023/05/24 14:58:10;;;;;;;;;;;;;;;;;;5061841;28;20371;-79
2023/05/24 15:00:38;;;;;;;;;;;;;;;;;;5056233;28;19934;-80
2023/05/24 15:03:06;;;;;;;;;;;;;;;;;;5074150;28;19935;-79
2023/05/24 15:05:40;;;;;;;;;;;;;;;;;;5066179;28;20277;-79
2023/05/24 15:08:07;;;;;;;;;;;;;;;;;;5064972;28;19935;-79
2023/05/24 15:10:37;;;;;;;;;;;;;;;;;;5069634;28;20005;-80
2023/05/24 15:13:05;;;;;;;;;;;;;;;;;;5070163;28;20399;-82
2023/05/24 15:15:33;;;;;;;;;;;;;;;;;;5084364;27;19942;-83
2023/05/24 15:18:00;;;;;;;;;;;;;;;;;;5072100;28;19928;-77
2023/05/24 15:20:33;;;;;;;;;;;;;;;;;;5081179;28;19928;-83
2023/05/24 15:23:00;;;;;;;;;;;;;;;;;;5067671;28;19930;-78
2023/05/24 15:25:33;;;;;;;;;;;;;;;;;;5088528;28;20580;-79
2023/05/24 15:28:01;;;;;;;;;;;;;;;;;;5080424;28;19927;-77
2023/05/24 15:30:28;;;;;;;;;;;;;;;;;;5083738;28;19934;-81
2023/05/24 15:33:01;;;;;;;;;;;;;;;;;;5081487;28;20144;-79
2023/05/24 15:35:33;;;;;;;;;;;;;;;;;;5071677;27;19934;-80
2023/05/24 15:38:06;;;;;;;;;;;;;;;;;;5072805;28;19934;-82
2023/05/24 15:40:33;;;;;;;;;;;;;;;;;;5087663;27;19928;-81
2023/05/24 15:43:06;;;;;;;;;;;;;;;;;;5072208;28;19939;-77
2023/05/24 15:45:34;;;;;;;;;;;;;;;;;;5075065;28;20306;-78
2023/05/24 15:48:03;;;;;;;;;;;;;;;;;;5058583;28;20636;-80
2023/05/24 15:50:36;;;;;;;;;;;;;;;;;;5074156;28;19934;-80
2023/05/24 15:53:03;;;;;;;;;;;;;;;;;;5087031;27;19938;-79
2023/05/24 15:55:32;;;;;;;;;;;;;;;;;;5071542;28;20311;-78
2023/05/24 15:58:04;;;;;;;;;;;;;;;;;;5084267;28;19927;-78
2023/05/24 16:00:32;;;;;;;;;;;;;;;;;;5078123;28;19939;-80
2023/05/24 16:03:00;;;;;;;;;;;;;;;;;;5061345;28;20520;-79
2023/05/24 16:05:27;;;;;;;;;;;;;;;;;;5081027;28;19928;-79
2023/05/24 16:07:55;;;;;;;;;;;;;;;;;;5079377;28;20379;-80
2023/05/24 16:10:22;;;;;;;;;;;;;;;;;;5078541;28;19928;-80
2023/05/24 16:12:50;;;;;;;;;;;;;;;;;;5066932;28;19930;-80
2023/05/24 16:15:23;;;;;;;;;;;;;;;;;;5077844;28;19931;-82
2023/05/24 16:17:50;;;;;;;;;;;;;;;;;;5062732;28;21640;-82
2023/05/24 16:20:18;;;;;;;;;;;;;;;;;;5064364;28;19934;-78
2023/05/24 16:22:45;;;;;;;;;;;;;;;;;;5080231;28;19934;-81
2023/05/24 16:25:18;;;;;;;;;;;;;;;;;;5072708;28;19935;-80
2023/05/24 16:27:46;;;;;;;;;;;;;;;;;;5066228;28;19927;-78
2023/05/24 16:30:14;;;;;;;;;;;;;;;;;;5064075;28;19938;-77
2023/05/24 16:32:43;;;;;;;;;;;;;;;;;;5078175;28;21377;-80
2023/05/24 16:35:11;;;;;;;;;;;;;;;;;;5086859;28;20371;-81
2023/05/24 16:37:38;;;;;;;;;;;;;;;;;;5065836;28;19927;-76
2023/05/24 16:40:06;;;;;;;;;;;;;;;;;;5062023;28;19927;-80
2023/05/24 16:42:39;;;;;;;;;;;;;;;;;;5070943;28;19935;-80
2023/05/24 16:45:06;;;;;;;;;;;;;;;;;;5063527;28;19955;-79
2023/05/24 16:47:34;;;;;;;;;;;;;;;;;;5073890;28;19988;-79
2023/05/24 16:50:13;;;;;;;;;;;;;;;;;;5052707;28;19928;-78
2023/05/24 16:52:41;;;;;;;;;;;;;;;;;;5082021;28;19927;-83
2023/05/24 16:55:08;;;;;;;;;;;;;;;;;;5076850;28;19939;-81
2023/05/24 16:57:41;;;;;;;;;;;;;;;;;;5071323;28;20442;-77